createdAt,value
2017-07-15T00:00:10.097Z,11.69
2017-07-15T00:01:04.101Z,11.67
2017-07-15T00:01:52.102Z,11.66
2017-07-15T00:02:40.175Z,11.66
2017-07-15T00:03:35.225Z,11.67
2017-07-15T00:04:35.249Z,11.67
2017-07-15T00:05:29.206Z,11.68
2017-07-15T00:06:23.301Z,11.70
2017-07-15T00:07:17.394Z,11.69
2017-07-15T00:08:17.298Z,11.74
2017-07-15T00:09:12.397Z,11.73
2017-07-15T00:10:12.472Z,11.77
2017-07-15T00:11:07.430Z,11.78
2017-07-15T00:12:01.588Z,11.79
2017-07-15T00:12:50.523Z,11.74
2017-07-15T00:13:44.549Z,11.70
2017-07-15T00:14:38.667Z,11.70
2017-07-15T00:15:26.664Z,11.66
2017-07-15T00:16:15.739Z,11.67
2017-07-15T00:17:03.990Z,11.66
2017-07-15T00:17:51.741Z,11.64
2017-07-15T00:18:45.811Z,11.63
2017-07-15T00:19:33.873Z,11.63
2017-07-15T00:20:27.938Z,11.64
2017-07-15T00:21:22.005Z,11.66
2017-07-15T00:22:15.913Z,11.62
2017-07-15T00:23:10.039Z,11.64
2017-07-15T00:24:04.058Z,11.64
2017-07-15T00:24:58.116Z,11.67
2017-07-15T00:25:47.087Z,11.70
2017-07-15T00:26:35.138Z,11.68
2017-07-15T00:27:23.383Z,11.70
2017-07-15T00:28:17.264Z,11.69
2017-07-15T00:29:05.367Z,11.70
2017-07-15T00:30:06.362Z,11.70
2017-07-15T00:31:00.442Z,11.68
2017-07-15T00:31:48.393Z,11.68
2017-07-15T00:32:42.493Z,11.70
2017-07-15T00:33:42.588Z,11.71
2017-07-15T00:34:37.574Z,11.68
2017-07-15T00:35:32.539Z,11.72
2017-07-15T00:36:32.630Z,11.71
2017-07-15T00:37:26.940Z,11.68
2017-07-15T00:38:21.688Z,11.69
2017-07-15T00:39:10.712Z,11.66
2017-07-15T00:39:59.774Z,11.66
2017-07-15T00:40:48.718Z,11.64
2017-07-15T00:41:43.827Z,11.60
2017-07-15T00:42:37.839Z,11.61
2017-07-15T00:43:26.972Z,11.61
2017-07-15T00:44:26.922Z,11.60
2017-07-15T00:45:15.987Z,11.60
2017-07-15T00:46:05.059Z,11.61
2017-07-15T00:47:00.076Z,11.59
2017-07-15T00:47:55.074Z,11.62
2017-07-15T00:48:44.157Z,11.64
2017-07-15T00:49:39.161Z,11.65
2017-07-15T00:50:27.238Z,11.66
2017-07-15T00:51:28.264Z,11.64
2017-07-15T00:52:29.768Z,11.63
2017-07-15T00:53:18.309Z,11.66
2017-07-15T00:54:06.369Z,11.67
2017-07-15T00:55:00.379Z,11.64
2017-07-15T00:55:55.423Z,11.60
2017-07-15T00:56:43.412Z,11.61
2017-07-15T00:57:32.520Z,11.62
2017-07-15T00:58:20.551Z,11.64
2017-07-15T00:59:08.796Z,11.63
2017-07-15T01:00:02.597Z,11.62
2017-07-15T01:01:02.614Z,11.62
2017-07-15T01:02:02.744Z,11.62
2017-07-15T01:02:56.867Z,11.65
2017-07-15T01:03:46.100Z,11.67
2017-07-15T01:04:39.783Z,11.66
2017-07-15T01:05:39.829Z,11.64
2017-07-15T01:06:39.907Z,11.60
2017-07-15T01:07:39.992Z,11.58
2017-07-15T01:08:40.946Z,11.56
2017-07-15T01:09:40.977Z,11.54
2017-07-15T01:10:34.992Z,11.50
2017-07-15T01:11:35.041Z,11.46
2017-07-15T01:12:24.076Z,11.43
2017-07-15T01:13:24.137Z,11.44
2017-07-15T01:14:19.184Z,11.42
2017-07-15T01:15:14.162Z,11.45
2017-07-15T01:16:14.219Z,11.46
2017-07-15T01:17:08.285Z,11.46
2017-07-15T01:18:02.310Z,11.49
2017-07-15T01:18:56.405Z,11.48
2017-07-15T01:19:50.409Z,11.50
2017-07-15T01:20:44.399Z,11.46
2017-07-15T01:21:38.450Z,11.44
2017-07-15T01:22:32.492Z,11.41
2017-07-15T01:23:26.477Z,11.43
2017-07-15T01:24:26.547Z,11.39
2017-07-15T01:25:21.632Z,11.34
2017-07-15T01:26:16.643Z,11.32
2017-07-15T01:27:10.677Z,11.31
2017-07-15T01:27:59.745Z,11.40
2017-07-15T01:28:53.812Z,11.41
2017-07-15T01:29:53.750Z,11.42
2017-07-15T01:30:47.853Z,11.41
2017-07-15T01:31:41.844Z,11.39
2017-07-15T01:32:35.919Z,11.37
2017-07-15T01:33:35.874Z,11.36
2017-07-15T01:34:30.924Z,11.37
2017-07-15T01:35:31.948Z,11.36
2017-07-15T01:36:20.127Z,11.37
2017-07-15T01:37:08.325Z,11.34
2017-07-15T01:37:57.123Z,11.34
2017-07-15T01:38:51.146Z,11.34
2017-07-15T01:39:45.449Z,11.32
2017-07-15T01:40:40.217Z,11.30
2017-07-15T01:41:35.233Z,11.28
2017-07-15T01:42:29.584Z,11.20
2017-07-15T01:43:23.370Z,11.21
2017-07-15T01:44:12.344Z,11.20
2017-07-15T01:45:06.369Z,11.19
2017-07-15T01:46:00.429Z,11.16
2017-07-15T01:46:55.607Z,11.15
2017-07-15T01:47:49.624Z,11.18
2017-07-15T01:48:37.588Z,11.20
2017-07-15T01:49:26.619Z,11.20
2017-07-15T01:50:15.635Z,11.21
2017-07-15T01:51:09.688Z,11.26
2017-07-15T01:52:09.775Z,11.23
2017-07-15T01:53:03.710Z,11.23
2017-07-15T01:54:03.715Z,11.16
2017-07-15T01:54:52.841Z,11.12
2017-07-15T01:55:52.872Z,11.08
2017-07-15T01:56:46.857Z,11.10
2017-07-15T01:57:41.165Z,11.14
2017-07-15T01:58:34.918Z,11.10
2017-07-15T01:59:35.026Z,11.13
2017-07-15T02:00:28.984Z,11.14
2017-07-15T02:01:24.071Z,11.14
2017-07-15T02:02:24.062Z,11.02
2017-07-15T02:03:13.121Z,11.02
2017-07-15T02:04:07.163Z,11.02
2017-07-15T02:05:02.219Z,11.07
2017-07-15T02:05:51.321Z,11.14
2017-07-15T02:06:45.187Z,11.14
2017-07-15T02:07:39.335Z,11.17
2017-07-15T02:08:27.503Z,11.13
2017-07-15T02:09:22.380Z,11.08
2017-07-15T02:10:17.432Z,11.09
2017-07-15T02:11:06.508Z,11.10
2017-07-15T02:12:00.538Z,11.09
2017-07-15T02:13:01.557Z,11.11
2017-07-15T02:13:50.628Z,11.06
2017-07-15T02:14:50.670Z,11.08
2017-07-15T02:15:44.769Z,11.07
2017-07-15T02:16:38.598Z,11.05
2017-07-15T02:17:27.953Z,10.96
2017-07-15T02:18:21.765Z,10.99
2017-07-15T02:19:16.812Z,11.04
2017-07-15T02:20:16.858Z,11.08
2017-07-15T02:21:10.882Z,11.10
2017-07-15T02:22:04.916Z,11.10
2017-07-15T02:22:59.979Z,11.15
2017-07-15T02:23:54.006Z,11.13
2017-07-15T02:24:47.984Z,11.12
2017-07-15T02:25:37.023Z,11.10
2017-07-15T02:26:26.154Z,11.07
2017-07-15T02:27:15.067Z,11.05
2017-07-15T02:28:04.135Z,11.04
2017-07-15T02:28:53.124Z,11.02
2017-07-15T02:29:53.254Z,11.01
2017-07-15T02:30:47.233Z,11.03
2017-07-15T02:31:42.523Z,11.08
2017-07-15T02:32:36.311Z,11.12
2017-07-15T02:33:42.372Z,11.16
2017-07-15T02:34:37.514Z,11.16
2017-07-15T02:35:32.477Z,11.24
2017-07-15T02:36:26.505Z,11.28
2017-07-15T02:37:20.572Z,11.34
2017-07-15T02:38:20.570Z,11.35
2017-07-15T02:39:15.604Z,11.34
2017-07-15T02:40:09.625Z,11.40
2017-07-15T02:41:04.807Z,11.38
2017-07-15T02:41:58.638Z,11.40
2017-07-15T02:42:53.712Z,11.38
2017-07-15T02:43:42.054Z,11.38
2017-07-15T02:44:35.796Z,11.40
2017-07-15T02:45:24.817Z,11.42
2017-07-15T02:46:18.954Z,11.43
2017-07-15T02:47:18.920Z,11.47
2017-07-15T02:48:13.003Z,11.46
2017-07-15T02:49:01.974Z,11.48
2017-07-15T02:50:02.067Z,11.46
2017-07-15T02:51:02.057Z,11.46
2017-07-15T02:51:56.110Z,11.46
2017-07-15T02:52:45.093Z,11.48
2017-07-15T02:53:39.135Z,11.46
2017-07-15T02:54:33.200Z,11.48
2017-07-15T02:55:22.291Z,11.47
2017-07-15T02:56:11.335Z,11.44
2017-07-15T02:57:06.449Z,11.41
2017-07-15T02:57:55.391Z,11.44
2017-07-15T02:58:44.415Z,11.46
2017-07-15T02:59:38.462Z,11.53
2017-07-15T03:00:27.598Z,11.56
2017-07-15T03:01:15.513Z,11.60
2017-07-15T03:02:10.639Z,11.61
2017-07-15T03:03:05.552Z,11.66
2017-07-15T03:03:59.722Z,11.66
2017-07-15T03:04:53.765Z,11.64
2017-07-15T03:05:47.759Z,11.65
2017-07-15T03:06:41.882Z,11.68
2017-07-15T03:07:36.908Z,11.68
2017-07-15T03:08:30.822Z,11.70
2017-07-15T03:09:18.850Z,11.70
2017-07-15T03:10:18.961Z,11.70
2017-07-15T03:11:24.956Z,11.69
2017-07-15T03:12:19.005Z,11.70
2017-07-15T03:13:13.067Z,11.68
2017-07-15T03:14:07.066Z,11.65
2017-07-15T03:15:07.041Z,11.66
2017-07-15T03:16:02.143Z,11.69
2017-07-15T03:17:02.104Z,11.71
2017-07-15T03:17:57.211Z,11.74
2017-07-15T03:18:45.452Z,11.80
2017-07-15T03:19:40.523Z,11.87
2017-07-15T03:20:34.354Z,11.88
2017-07-15T03:21:28.372Z,11.92
2017-07-15T03:22:23.417Z,11.90
2017-07-15T03:23:17.416Z,11.92
2017-07-15T03:24:11.469Z,11.94
2017-07-15T03:25:00.689Z,11.97
2017-07-15T03:26:01.524Z,11.98
2017-07-15T03:26:55.597Z,12.00
2017-07-15T03:27:44.579Z,11.99
2017-07-15T03:28:38.639Z,12.00
2017-07-15T03:29:32.748Z,12.01
2017-07-15T03:30:26.701Z,12.04
2017-07-15T03:31:20.743Z,12.06
2017-07-15T03:32:14.845Z,12.08
2017-07-15T03:33:08.901Z,12.10
2017-07-15T03:33:57.827Z,12.08
2017-07-15T03:34:45.947Z,12.09
2017-07-15T03:35:33.928Z,12.12
2017-07-15T03:36:33.975Z,12.14
2017-07-15T03:37:28.047Z,12.15
2017-07-15T03:38:22.090Z,12.20
2017-07-15T03:39:16.201Z,12.20
2017-07-15T03:40:10.148Z,12.22
2017-07-15T03:41:10.175Z,12.22
2017-07-15T03:41:59.192Z,12.22
2017-07-15T03:42:53.269Z,12.24
2017-07-15T03:43:41.645Z,12.24
2017-07-15T03:44:35.375Z,12.25
2017-07-15T03:45:30.392Z,12.30
2017-07-15T03:46:31.435Z,12.28
2017-07-15T03:47:25.424Z,12.28
2017-07-15T03:48:25.459Z,12.28
2017-07-15T03:49:20.559Z,12.26
2017-07-15T03:50:15.501Z,12.28
2017-07-15T03:51:09.608Z,12.30
2017-07-15T03:52:09.667Z,12.29
2017-07-15T03:53:03.677Z,12.31
2017-07-15T03:54:04.840Z,12.30
2017-07-15T03:54:58.738Z,12.29
2017-07-15T03:55:46.826Z,12.30
2017-07-15T03:56:41.876Z,12.33
2017-07-15T03:57:36.829Z,12.36
2017-07-15T03:58:30.905Z,12.30
2017-07-15T03:59:25.892Z,12.31
2017-07-15T04:00:19.949Z,12.26
2017-07-15T04:01:09.101Z,12.20
2017-07-15T04:02:03.138Z,12.23
2017-07-15T04:02:57.168Z,12.18
2017-07-15T04:03:57.178Z,12.22
2017-07-15T04:04:45.184Z,12.24
2017-07-15T04:05:45.187Z,12.25
2017-07-15T04:06:40.325Z,12.24
2017-07-15T04:07:29.371Z,12.13
2017-07-15T04:08:24.344Z,12.08
2017-07-15T04:09:19.327Z,12.08
2017-07-15T04:10:14.430Z,12.00
2017-07-15T04:11:02.455Z,12.03
2017-07-15T04:11:57.481Z,11.99
2017-07-15T04:12:52.545Z,12.10
2017-07-15T04:13:46.584Z,12.10
2017-07-15T04:14:35.535Z,12.16
2017-07-15T04:15:24.658Z,12.22
2017-07-15T04:16:18.677Z,12.31
2017-07-15T04:17:12.798Z,12.24
2017-07-15T04:18:06.839Z,12.29
2017-07-15T04:19:00.897Z,12.34
2017-07-15T04:19:55.837Z,12.42
2017-07-15T04:20:44.838Z,12.46
2017-07-15T04:21:38.944Z,12.48
2017-07-15T04:22:38.952Z,12.46
2017-07-15T04:23:28.285Z,12.48
2017-07-15T04:24:22.005Z,12.56
2017-07-15T04:25:22.042Z,12.62
2017-07-15T04:26:11.055Z,12.64
2017-07-15T04:27:00.156Z,12.71
2017-07-15T04:28:00.204Z,12.69
2017-07-15T04:28:55.284Z,12.72
2017-07-15T04:29:50.227Z,12.74
2017-07-15T04:30:44.375Z,12.73
2017-07-15T04:31:38.614Z,12.74
2017-07-15T04:32:26.400Z,12.72
2017-07-15T04:33:20.408Z,12.71
2017-07-15T04:34:15.517Z,12.70
2017-07-15T04:35:09.515Z,12.73
2017-07-15T04:36:03.601Z,12.74
2017-07-15T04:36:58.564Z,12.79
2017-07-15T04:37:52.694Z,12.76
2017-07-15T04:38:46.679Z,12.71
2017-07-15T04:39:46.732Z,12.72
2017-07-15T04:40:40.721Z,12.77
2017-07-15T04:41:41.733Z,12.77
2017-07-15T04:42:35.828Z,12.82
2017-07-15T04:43:35.851Z,12.90
2017-07-15T04:44:30.926Z,12.92
2017-07-15T04:45:24.949Z,12.91
2017-07-15T04:46:19.018Z,12.86
2017-07-15T04:47:13.051Z,12.84
2017-07-15T04:48:07.042Z,12.88
2017-07-15T04:49:01.162Z,12.85
2017-07-15T04:49:50.142Z,12.85
2017-07-15T04:50:39.253Z,12.80
2017-07-15T04:51:39.555Z,12.81
2017-07-15T04:52:39.243Z,12.88
2017-07-15T04:53:39.309Z,12.92
2017-07-15T04:54:33.343Z,12.82
2017-07-15T04:55:21.339Z,12.93
2017-07-15T04:56:16.501Z,12.88
2017-07-15T04:57:04.478Z,12.97
2017-07-15T04:57:52.561Z,12.97
2017-07-15T04:58:46.522Z,13.00
2017-07-15T04:59:34.524Z,13.10
2017-07-15T05:00:34.730Z,13.02
2017-07-15T05:01:23.780Z,13.09
2017-07-15T05:02:18.741Z,13.09
2017-07-15T05:03:12.782Z,13.14
2017-07-15T05:04:13.783Z,13.19
2017-07-15T05:05:08.798Z,13.26
2017-07-15T05:06:03.909Z,13.28
2017-07-15T05:06:57.953Z,13.25
2017-07-15T05:07:51.952Z,13.24
2017-07-15T05:08:41.082Z,13.28
2017-07-15T05:09:30.104Z,13.32
2017-07-15T05:10:18.065Z,13.24
2017-07-15T05:11:12.097Z,13.28
2017-07-15T05:12:06.262Z,13.20
2017-07-15T05:13:06.184Z,13.28
2017-07-15T05:14:06.269Z,13.31
2017-07-15T05:15:07.223Z,13.44
2017-07-15T05:16:08.240Z,13.49
2017-07-15T05:17:02.305Z,13.52
2017-07-15T05:17:51.425Z,13.52
2017-07-15T05:18:46.385Z,13.55
2017-07-15T05:19:34.440Z,13.44
2017-07-15T05:20:23.502Z,13.32
2017-07-15T05:21:12.641Z,13.28
2017-07-15T05:22:07.651Z,13.37
2017-07-15T05:23:01.677Z,13.36
2017-07-15T05:23:55.750Z,13.29
2017-07-15T05:24:49.944Z,13.27
2017-07-15T05:25:49.756Z,13.29
2017-07-15T05:26:43.840Z,13.24
2017-07-15T05:27:38.106Z,13.28
2017-07-15T05:28:26.965Z,13.23
2017-07-15T05:29:14.998Z,13.22
2017-07-15T05:30:08.956Z,13.18
2017-07-15T05:30:57.017Z,13.10
2017-07-15T05:31:46.383Z,13.10
2017-07-15T05:32:40.158Z,13.08
2017-07-15T05:33:28.252Z,13.09
2017-07-15T05:34:28.237Z,13.10
2017-07-15T05:35:28.197Z,13.09
2017-07-15T05:36:17.269Z,13.14
2017-07-15T05:37:12.286Z,13.13
2017-07-15T05:38:07.366Z,13.16
2017-07-15T05:39:01.631Z,13.16
2017-07-15T05:39:55.386Z,13.19
2017-07-15T05:40:50.454Z,13.18
2017-07-15T05:41:50.823Z,13.23
2017-07-15T05:42:38.511Z,13.36
2017-07-15T05:43:38.843Z,13.37
2017-07-15T05:44:33.737Z,13.42
2017-07-15T05:45:21.664Z,13.37
2017-07-15T05:46:16.787Z,13.32
2017-07-15T05:47:05.744Z,13.24
2017-07-15T05:47:59.819Z,13.36
2017-07-15T05:48:53.790Z,13.39
2017-07-15T05:49:41.892Z,13.37
2017-07-15T05:50:36.948Z,13.46
2017-07-15T05:51:26.006Z,13.70
2017-07-15T05:52:20.002Z,13.72
2017-07-15T05:53:20.012Z,13.68
2017-07-15T05:54:08.074Z,13.74
2017-07-15T05:55:08.193Z,13.70
2017-07-15T05:55:57.189Z,13.58
2017-07-15T05:56:51.523Z,13.63
2017-07-15T05:57:45.281Z,13.50
2017-07-15T05:58:34.357Z,13.52
2017-07-15T05:59:28.318Z,13.60
2017-07-15T06:00:28.586Z,13.56
2017-07-15T06:01:22.518Z,13.66
2017-07-15T06:02:23.487Z,13.86
2017-07-15T06:03:23.521Z,14.04
2017-07-15T06:04:17.600Z,14.18
2017-07-15T06:05:11.609Z,14.30
2017-07-15T06:05:59.984Z,14.48
2017-07-15T06:07:00.665Z,14.44
2017-07-15T06:07:55.757Z,14.88
2017-07-15T06:08:49.738Z,15.54
2017-07-15T06:09:38.863Z,15.68
2017-07-15T06:10:26.809Z,16.10
2017-07-15T06:11:28.153Z,16.58
2017-07-15T06:12:17.134Z,16.73
2017-07-15T06:13:12.053Z,16.64
2017-07-15T06:14:06.169Z,16.86
2017-07-15T06:15:00.200Z,16.78
2017-07-15T06:15:48.184Z,16.70
2017-07-15T06:16:42.283Z,16.46
2017-07-15T06:17:37.510Z,15.96
2017-07-15T06:18:26.478Z,15.60
2017-07-15T06:19:20.375Z,15.12
2017-07-15T06:20:14.409Z,14.78
2017-07-15T06:21:08.485Z,14.53
2017-07-15T06:21:58.234Z,14.33
2017-07-15T06:22:57.590Z,14.00
2017-07-15T06:23:51.603Z,13.84
2017-07-15T06:24:45.635Z,13.68
2017-07-15T06:25:34.713Z,13.68
2017-07-15T06:26:29.805Z,13.56
2017-07-15T06:27:18.081Z,13.51
2017-07-15T06:28:06.853Z,13.43
2017-07-15T06:28:54.932Z,13.38
2017-07-15T06:29:49.050Z,13.35
2017-07-15T06:30:37.953Z,13.26
2017-07-15T06:31:32.140Z,13.25
2017-07-15T06:32:32.238Z,13.30
2017-07-15T06:33:21.158Z,13.27
2017-07-15T06:34:16.132Z,13.31
2017-07-15T06:35:05.202Z,13.41
2017-07-15T06:35:59.255Z,13.41
2017-07-15T06:36:47.699Z,13.35
2017-07-15T06:37:42.393Z,13.36
2017-07-15T06:38:30.450Z,13.30
2017-07-15T06:39:18.493Z,13.23
2017-07-15T06:40:12.482Z,13.26
2017-07-15T06:41:12.515Z,13.30
2017-07-15T06:42:06.589Z,13.42
2017-07-15T06:42:55.715Z,13.44
2017-07-15T06:43:49.678Z,13.54
2017-07-15T06:44:38.757Z,13.55
2017-07-15T06:45:32.828Z,13.48
2017-07-15T06:46:21.842Z,13.50
2017-07-15T06:47:09.907Z,13.46
2017-07-15T06:47:58.922Z,13.52
2017-07-15T06:48:48.120Z,13.65
2017-07-15T06:49:37.008Z,13.66
2017-07-15T06:50:26.116Z,13.55
2017-07-15T06:51:15.098Z,13.44
2017-07-15T06:52:09.184Z,13.45
2017-07-15T06:53:03.232Z,13.49
2017-07-15T06:53:52.295Z,13.56
2017-07-15T06:54:41.287Z,13.60
2017-07-15T06:55:35.646Z,13.64
2017-07-15T06:56:35.351Z,13.67
2017-07-15T06:57:30.414Z,13.74
2017-07-15T06:58:19.599Z,13.87
2017-07-15T06:59:08.511Z,13.94
2017-07-15T07:00:02.588Z,14.18
2017-07-15T07:00:50.567Z,14.34
2017-07-15T07:01:39.630Z,14.55
2017-07-15T07:02:28.628Z,14.65
2017-07-15T07:03:23.836Z,14.78
2017-07-15T07:04:17.743Z,14.76
2017-07-15T07:05:05.878Z,14.76
2017-07-15T07:05:59.896Z,14.78
2017-07-15T07:06:55.169Z,14.68
2017-07-15T07:07:55.964Z,14.46
2017-07-15T07:08:56.148Z,14.26
2017-07-15T07:09:44.105Z,14.19
2017-07-15T07:10:32.083Z,14.05
2017-07-15T07:11:21.221Z,13.90
2017-07-15T07:12:15.289Z,13.85
2017-07-15T07:13:10.235Z,13.84
2017-07-15T07:14:10.330Z,13.86
2017-07-15T07:15:04.332Z,13.88
2017-07-15T07:15:58.343Z,14.00
2017-07-15T07:16:52.638Z,14.15
2017-07-15T07:17:40.433Z,14.16
2017-07-15T07:18:29.526Z,14.15
2017-07-15T07:19:18.736Z,14.14
2017-07-15T07:20:07.660Z,14.14
2017-07-15T07:20:55.731Z,14.03
2017-07-15T07:21:51.048Z,14.12
2017-07-15T07:22:44.750Z,14.00
2017-07-15T07:23:38.781Z,14.00
2017-07-15T07:24:32.879Z,13.88
2017-07-15T07:25:26.907Z,13.88
2017-07-15T07:26:20.905Z,13.89
2017-07-15T07:27:14.914Z,13.94
2017-07-15T07:28:10.022Z,13.92
2017-07-15T07:29:10.035Z,13.98
2017-07-15T07:30:04.183Z,14.16
2017-07-15T07:31:04.141Z,14.37
2017-07-15T07:31:59.161Z,14.53
2017-07-15T07:32:48.308Z,14.67
2017-07-15T07:33:42.294Z,14.71
2017-07-15T07:34:37.317Z,14.81
2017-07-15T07:35:31.412Z,14.78
2017-07-15T07:36:26.436Z,14.89
2017-07-15T07:37:20.417Z,14.92
2017-07-15T07:38:14.548Z,15.02
2017-07-15T07:39:03.519Z,15.04
2017-07-15T07:39:52.702Z,14.98
2017-07-15T07:40:47.678Z,15.00
2017-07-15T07:41:47.724Z,15.10
2017-07-15T07:42:42.804Z,15.22
2017-07-15T07:43:30.735Z,15.30
2017-07-15T07:44:30.828Z,15.42
2017-07-15T07:45:25.985Z,15.52
2017-07-15T07:46:19.958Z,15.68
2017-07-15T07:47:15.004Z,15.80
2017-07-15T07:48:09.031Z,15.90
2017-07-15T07:48:58.053Z,15.99
2017-07-15T07:49:53.175Z,16.04
2017-07-15T07:50:47.148Z,16.04
2017-07-15T07:51:41.324Z,16.00
2017-07-15T07:52:35.243Z,15.90
2017-07-15T07:53:29.389Z,15.83
2017-07-15T07:54:23.303Z,15.66
2017-07-15T07:55:23.370Z,15.60
2017-07-15T07:56:18.461Z,15.39
2017-07-15T07:57:06.523Z,15.32
2017-07-15T07:57:55.720Z,15.22
2017-07-15T07:58:49.541Z,15.31
2017-07-15T07:59:44.622Z,15.32
2017-07-15T08:00:32.656Z,15.44
2017-07-15T08:01:20.944Z,15.75
2017-07-15T08:02:09.784Z,16.35
2017-07-15T08:03:04.005Z,17.15
2017-07-15T08:04:03.863Z,17.83
2017-07-15T08:04:58.140Z,18.63
2017-07-15T08:05:59.090Z,19.70
2017-07-15T08:06:53.288Z,19.76
2017-07-15T08:07:48.342Z,20.30
2017-07-15T08:08:42.239Z,21.08
2017-07-15T08:09:36.271Z,21.65
2017-07-15T08:10:24.474Z,22.45
2017-07-15T08:11:24.500Z,22.91
2017-07-15T08:12:18.553Z,22.50
2017-07-15T08:13:13.577Z,22.38
2017-07-15T08:14:08.622Z,22.17
2017-07-15T08:15:02.760Z,22.03
2017-07-15T08:15:57.753Z,20.90
2017-07-15T08:16:58.852Z,20.59
2017-07-15T08:17:53.859Z,20.39
2017-07-15T08:18:48.915Z,20.24
2017-07-15T08:19:43.959Z,19.98
2017-07-15T08:20:44.056Z,19.46
2017-07-15T08:21:38.006Z,19.13
2017-07-15T08:22:32.114Z,19.12
2017-07-15T08:23:21.128Z,19.15
2017-07-15T08:24:15.293Z,19.14
2017-07-15T08:25:10.202Z,19.05
2017-07-15T08:25:59.303Z,18.92
2017-07-15T08:26:53.482Z,18.59
2017-07-15T08:27:53.297Z,18.33
2017-07-15T08:28:48.364Z,18.20
2017-07-15T08:29:42.674Z,18.14
2017-07-15T08:30:37.629Z,18.02
2017-07-15T08:31:31.608Z,17.66
2017-07-15T08:32:25.698Z,17.28
2017-07-15T08:33:19.779Z,16.97
2017-07-15T08:34:08.653Z,16.74
2017-07-15T08:35:04.005Z,16.48
2017-07-15T08:35:52.717Z,16.50
2017-07-15T08:36:53.091Z,16.28
2017-07-15T08:37:46.914Z,16.18
2017-07-15T08:38:40.853Z,16.12
2017-07-15T08:39:40.921Z,15.91
2017-07-15T08:40:41.380Z,15.81
2017-07-15T08:41:36.060Z,15.73
2017-07-15T08:42:30.144Z,15.83
2017-07-15T08:43:24.215Z,15.88
2017-07-15T08:44:24.119Z,15.86
2017-07-15T08:45:24.229Z,15.98
2017-07-15T08:46:13.281Z,16.02
2017-07-15T08:47:07.285Z,16.14
2017-07-15T08:48:01.371Z,16.34
2017-07-15T08:48:49.509Z,16.51
2017-07-15T08:49:44.408Z,16.74
2017-07-15T08:50:38.572Z,16.93
2017-07-15T08:51:33.833Z,17.30
2017-07-15T08:52:28.680Z,17.54
2017-07-15T08:53:22.654Z,17.64
2017-07-15T08:54:16.706Z,17.72
2017-07-15T08:55:10.842Z,17.88
2017-07-15T08:56:04.845Z,18.10
2017-07-15T08:56:59.250Z,18.38
2017-07-15T08:57:52.860Z,18.54
2017-07-15T08:58:52.919Z,18.82
2017-07-15T08:59:48.088Z,19.04
2017-07-15T09:00:43.084Z,19.17
2017-07-15T09:01:38.147Z,19.14
2017-07-15T09:02:39.184Z,19.04
2017-07-15T09:03:34.362Z,19.03
2017-07-15T09:04:29.264Z,19.03
2017-07-15T09:05:24.264Z,19.20
2017-07-15T09:06:24.345Z,19.24
2017-07-15T09:07:12.384Z,18.99
2017-07-15T09:08:06.392Z,19.09
2017-07-15T09:09:00.554Z,19.07
2017-07-15T09:09:49.512Z,19.22
2017-07-15T09:10:37.658Z,19.38
2017-07-15T09:11:32.957Z,19.97
2017-07-15T09:12:26.684Z,20.66
2017-07-15T09:13:20.850Z,21.16
2017-07-15T09:14:15.788Z,21.40
2017-07-15T09:15:10.793Z,21.77
2017-07-15T09:16:05.013Z,21.86
2017-07-15T09:17:04.892Z,21.46
2017-07-15T09:18:00.037Z,21.24
2017-07-15T09:18:49.049Z,21.13
2017-07-15T09:19:43.038Z,21.03
2017-07-15T09:20:43.213Z,20.94
2017-07-15T09:21:37.158Z,21.10
2017-07-15T09:22:37.277Z,21.50
2017-07-15T09:23:25.322Z,21.93
2017-07-15T09:24:14.543Z,22.28
2017-07-15T09:25:03.477Z,21.94
2017-07-15T09:25:52.436Z,21.90
2017-07-15T09:26:46.718Z,21.85
2017-07-15T09:27:46.823Z,21.30
2017-07-15T09:28:41.922Z,20.98
2017-07-15T09:29:29.726Z,20.88
2017-07-15T09:30:30.747Z,20.62
2017-07-15T09:31:31.124Z,20.44
2017-07-15T09:32:25.865Z,20.24
2017-07-15T09:33:15.086Z,19.94
2017-07-15T09:34:15.026Z,19.71
2017-07-15T09:35:09.087Z,19.38
2017-07-15T09:36:04.248Z,19.13
2017-07-15T09:37:04.087Z,18.93
2017-07-15T09:37:58.195Z,18.66
2017-07-15T09:38:59.308Z,18.53
2017-07-15T09:39:53.354Z,18.51
2017-07-15T09:40:47.604Z,18.44
2017-07-15T09:41:47.545Z,18.36
2017-07-15T09:42:41.452Z,18.41
2017-07-15T09:43:41.682Z,18.45
2017-07-15T09:44:36.684Z,18.40
2017-07-15T09:45:36.646Z,18.43
2017-07-15T09:46:31.708Z,18.62
2017-07-15T09:47:26.745Z,18.74
2017-07-15T09:48:27.742Z,18.77
2017-07-15T09:49:21.771Z,18.94
2017-07-15T09:50:15.824Z,18.90
2017-07-15T09:51:11.098Z,19.00
2017-07-15T09:52:10.913Z,19.14
2017-07-15T09:53:04.991Z,19.25
2017-07-15T09:54:00.029Z,19.34
2017-07-15T09:54:49.130Z,19.33
2017-07-15T09:55:43.126Z,19.48
2017-07-15T09:56:37.276Z,19.59
2017-07-15T09:57:31.276Z,19.75
2017-07-15T09:58:19.334Z,19.88
2017-07-15T09:59:20.344Z,19.91
2017-07-15T10:00:20.478Z,19.70
2017-07-15T10:01:14.518Z,19.70
2017-07-15T10:02:08.534Z,19.61
2017-07-15T10:03:03.626Z,19.68
2017-07-15T10:03:52.671Z,19.67
2017-07-15T10:04:46.746Z,19.93
2017-07-15T10:05:40.888Z,20.30
2017-07-15T10:06:35.047Z,20.58
2017-07-15T10:07:28.999Z,20.46
2017-07-15T10:08:23.174Z,20.08
2017-07-15T10:09:18.098Z,19.77
2017-07-15T10:10:13.292Z,19.68
2017-07-15T10:11:14.322Z,19.63
2017-07-15T10:12:14.341Z,19.66
2017-07-15T10:13:08.444Z,19.77
2017-07-15T10:14:02.479Z,20.00
2017-07-15T10:14:56.485Z,20.49
2017-07-15T10:15:50.489Z,21.01
2017-07-15T10:16:45.562Z,21.43
2017-07-15T10:17:39.708Z,21.65
2017-07-15T10:18:33.774Z,21.96
2017-07-15T10:19:27.922Z,22.38
2017-07-15T10:20:22.837Z,22.38
2017-07-15T10:21:16.907Z,22.45
2017-07-15T10:22:04.987Z,22.69
2017-07-15T10:22:58.714Z,23.40
2017-07-15T10:23:47.799Z,23.78
2017-07-15T10:24:42.914Z,23.74
2017-07-15T10:25:37.186Z,23.38
2017-07-15T10:26:26.187Z,23.03
2017-07-15T10:27:20.287Z,22.59
2017-07-15T10:28:14.426Z,22.30
2017-07-15T10:29:14.383Z,22.21
2017-07-15T10:30:03.505Z,22.25
2017-07-15T10:30:58.606Z,22.49
2017-07-15T10:31:52.613Z,22.45
2017-07-15T10:32:47.650Z,21.85
2017-07-15T10:33:36.557Z,21.42
2017-07-15T10:34:25.718Z,21.00
2017-07-15T10:35:25.822Z,20.31
2017-07-15T10:36:20.938Z,19.97
2017-07-15T10:37:15.765Z,19.75
2017-07-15T10:38:09.919Z,19.75
2017-07-15T10:39:05.026Z,20.04
2017-07-15T10:39:54.029Z,20.33
2017-07-15T10:40:54.119Z,20.47
2017-07-15T10:41:54.320Z,20.63
2017-07-15T10:42:48.309Z,20.65
2017-07-15T10:43:43.139Z,20.89
2017-07-15T10:44:37.296Z,21.18
2017-07-15T10:45:31.307Z,21.31
2017-07-15T10:46:26.304Z,21.43
2017-07-15T10:47:21.392Z,21.59
2017-07-15T10:48:15.430Z,21.57
2017-07-15T10:49:09.412Z,21.37
2017-07-15T10:50:09.559Z,21.30
2017-07-15T10:51:04.553Z,21.14
2017-07-15T10:51:58.949Z,21.16
2017-07-15T10:52:52.802Z,21.03
2017-07-15T10:53:47.742Z,20.89
2017-07-15T10:54:41.823Z,20.78
2017-07-15T10:55:31.209Z,20.68
2017-07-15T10:56:31.925Z,20.58
2017-07-15T10:57:32.040Z,20.62
2017-07-15T10:58:27.053Z,20.66
2017-07-15T10:59:27.145Z,21.08
2017-07-15T11:00:22.327Z,21.38
2017-07-15T11:01:16.226Z,21.66
2017-07-15T11:02:10.359Z,21.58
2017-07-15T11:03:04.447Z,21.40
2017-07-15T11:03:59.312Z,21.37
2017-07-15T11:04:53.435Z,21.30
2017-07-15T11:05:42.597Z,21.12
2017-07-15T11:06:31.665Z,20.90
2017-07-15T11:07:26.689Z,20.64
2017-07-15T11:08:26.620Z,20.43
2017-07-15T11:09:15.936Z,20.24
2017-07-15T11:10:04.817Z,20.04
2017-07-15T11:10:59.789Z,19.87
2017-07-15T11:11:48.838Z,19.62
2017-07-15T11:12:42.927Z,19.56
2017-07-15T11:13:38.045Z,19.50
2017-07-15T11:14:32.062Z,19.50
2017-07-15T11:15:32.012Z,19.48
2017-07-15T11:16:21.287Z,19.47
2017-07-15T11:17:15.218Z,19.42
2017-07-15T11:18:03.295Z,19.50
2017-07-15T11:18:52.393Z,19.47
2017-07-15T11:19:47.354Z,19.54
2017-07-15T11:20:41.447Z,19.47
2017-07-15T11:21:36.454Z,19.42
2017-07-15T11:22:25.575Z,19.41
2017-07-15T11:23:20.521Z,19.52
2017-07-15T11:24:14.731Z,19.78
2017-07-15T11:25:08.620Z,19.89
2017-07-15T11:26:02.672Z,20.20
2017-07-15T11:27:04.199Z,20.36
2017-07-15T11:27:52.965Z,20.56
2017-07-15T11:28:46.851Z,20.76
2017-07-15T11:29:47.265Z,20.97
2017-07-15T11:30:35.984Z,21.10
2017-07-15T11:31:30.374Z,21.28
2017-07-15T11:32:24.143Z,21.42
2017-07-15T11:33:18.160Z,21.48
2017-07-15T11:34:07.167Z,21.50